Nearby METAR Reports

 

KTKI - Mckinney, Texas, USA
Distance from station: N 10mi, 16km
Updated: Wed, 19-Jun-2024 3:53am CDT
Mostly cloudy
Mostly cloudy
 Wind from E
Wind: E 5 mph, 7 km/h
Temperature: 73°F, 23°C
Dew Point: 68°F, 20°C
Humidity: 83%
Barometer: 29.97 inHg, 1014.9 hPa
Clouds: Mostly cloudy
Visibility: 10 miles, 16 km
Cloud details: Mostly cloudy 2000 ft
2024/06/19 08:53 KTKI 190853Z AUTO 10004KT 10SM BKN020 23/20 A2997 RMK AO2 SLP142 T02330200 50002
KADS - Dallas/Addison, Texas, USA
Distance from station: WSW 13mi, 20km
Updated: Wed, 19-Jun-2024 4:15am CDT
Clear
Clear
 Wind from E
Wind: E 7 mph, 11 km/h
Temperature: 75°F, 24°C
Dew Point: 68°F, 20°C
Humidity: 78%
Barometer: 29.98 inHg, 1015.2 hPa
Clouds: Clear
Visibility: 10 miles, 16 km
2024/06/19 09:15 KADS 190915Z AUTO 10006KT 10SM CLR 24/20 A2998 RMK AO2 T02410195 PWINO
 
KF46 - Rockwall, Texas, USA
Distance from station: SE 13mi, 21km
Updated: Wed, 19-Jun-2024 4:15am CDT
Clear
Clear
 Wind from E
Wind: E 3 mph, 6 km/h
Temperature: 73°F, 23°C
Dew Point: 73°F, 23°C
Humidity: 100%
Barometer: 29.98 inHg, 1015.2 hPa
Clouds: Clear
Visibility: 10 miles, 16 km
2024/06/19 09:15 KF46 190915Z AUTO 09003KT 10SM CLR 23/23 A2998 RMK AO2 T02250225
KDAL - Dallas/Love Fld, Texas, USA
Distance from station: SW 19mi, 30km
Updated: Wed, 19-Jun-2024 3:53am CDT
Clear
Clear
 Wind from ESE
Wind: ESE 6 mph, 9 km/h
Temperature: 77°F, 25°C
Dew Point: 70°F, 21°C
Humidity: 79%
Barometer: 29.96 inHg, 1014.6 hPa
Clouds: Clear
Visibility: 10 miles, 16 km
2024/06/19 08:53 KDAL 190853Z 12005KT 10SM CLR 25/21 A2996 RMK AO2 SLP136 T02500206 51005
 
KHQZ - Mesquite, Texas, USA
Distance from station: SSE 21mi, 33km
Updated: Wed, 19-Jun-2024 4:15am CDT
Clear
Clear
 Wind from calm
Wind: Calm
Temperature: 73°F, 23°C
Dew Point: 68°F, 20°C
Humidity: 83%
Barometer: 29.98 inHg, 1015.2 hPa
Clouds: Clear
Visibility: 10 miles, 16 km
2024/06/19 09:15 KHQZ 190915Z AUTO 00000KT 10SM CLR 23/20 A2998 RMK AO1 T02250198
KDFW - Dallas/Ft Worth, Texas, USA
Distance from station: WSW 25mi, 41km
Updated: Wed, 19-Jun-2024 3:53am CDT
Clear
Clear
 Wind from ESE
Wind: ESE 6 mph, 9 km/h
Temperature: 75°F, 24°C
Dew Point: 70°F, 21°C
Humidity: 83%
Barometer: 29.95 inHg, 1014.2 hPa
Clouds: Clear
Visibility: 10 miles, 16 km
2024/06/19 08:53 KDFW 190853Z 11005KT 10SM CLR 24/21 A2995 RMK AO2 SLP131 T02390206 53004
 
KRBD - Dallas/Redbird, Texas, USA
Distance from station: SSW 29mi, 46km
Updated: Wed, 19-Jun-2024 3:53am CDT
Clear
Clear
 Wind from E
Wind: E 5 mph, 7 km/h
Temperature: 73°F, 23°C
Dew Point: 70°F, 21°C
Humidity: 89%
Barometer: 29.95 inHg, 1014.2 hPa
Clouds: Clear
Visibility: 10 miles, 16 km
2024/06/19 08:53 KRBD 190853Z AUTO 10004KT 10SM CLR 23/21 A2995 RMK AO2 SLP133 T02330206 51003
KTRL - Terrell, Texas, USA
Distance from station: SE 30mi, 48km
Updated: Wed, 19-Jun-2024 3:53am CDT
Clear
Clear
 Wind from NE
Wind: NE 5 mph, 7 km/h
Temperature: 72°F, 22°C
Dew Point: 68°F, 20°C
Humidity: 88%
Barometer: 29.97 inHg, 1014.9 hPa
Clouds: Clear
Visibility: 10 miles, 16 km
2024/06/19 08:53 KTRL 190853Z AUTO 04004KT 10SM CLR 22/20 A2997 RMK AO2 SLP141 T02220200 51006
 
KGVT - Greenville/Major, Texas, USA
Distance from station: E 32mi, 51km
Updated: Wed, 19-Jun-2024 4:15am CDT
Partly cloudy
Partly cloudy
 Wind from E
Wind: E 3 mph, 6 km/h
Temperature: 72°F, 22°C
Dew Point: 72°F, 22°C
Humidity: 100%
Barometer: 29.99 inHg, 1015.6 hPa
Clouds: Partly cloudy
Visibility: 10 miles, 16 km
Cloud details: Partly cloudy 1500 ft
Partly cloudy 2000 ft
2024/06/19 09:15 KGVT 190915Z AUTO 09003KT 10SM SCT015 SCT020 22/22 A2999 RMK AO2 TSNO T02220220
KLNC - Lancaster, Texas, USA
Distance from station: S 32mi, 52km
Updated: Wed, 19-Jun-2024 4:15am CDT
Clear
Clear
 Wind from ESE
Wind: ESE 5 mph, 7 km/h
Temperature: 73°F, 23°C
Dew Point: 68°F, 20°C
Humidity: 83%
Barometer: 29.97 inHg, 1014.9 hPa
Clouds: Clear
Visibility: 10 miles, 16 km
2024/06/19 09:15 KLNC 190915Z AUTO 11004KT 10SM CLR 23/20 A2997 RMK AO2 T02250201
 
KGPM - Grand Prairie, Texas, USA
Distance from station: SW 34mi, 55km
Updated: Wed, 19-Jun-2024 4:15am CDT
Clear
Clear
 Wind from calm
Wind: Calm
Temperature: 75°F, 24°C
Dew Point: 68°F, 20°C
Humidity: 78%
Barometer: 29.98 inHg, 1015.2 hPa
Clouds: Clear
Visibility: 10 miles, 16 km
2024/06/19 09:15 KGPM 190915Z AUTO 00000KT 10SM CLR 24/20 A2998 RMK AO2 T02350200
KDTO - Denton, Texas, USA
Distance from station: WNW 36mi, 57km
Updated: Wed, 19-Jun-2024 3:53am CDT
Clear
Clear
 Wind from SE
Wind: SE 5 mph, 7 km/h
Temperature: 75°F, 24°C
Dew Point: 70°F, 21°C
Humidity: 83%
Barometer: 29.96 inHg, 1014.6 hPa
Clouds: Clear
Visibility: 10 miles, 16 km
2024/06/19 08:53 KDTO 190853Z AUTO 14004KT 10SM CLR 24/21 A2996 RMK AO2 SLP135 T02390211 52002
 
KGKY - Arlington, Texas, USA
Distance from station: SW 38mi, 61km
Updated: Wed, 19-Jun-2024 3:53am CDT
Clear
Clear
 Wind from E
Wind: E 3 mph, 6 km/h
Temperature: 73°F, 23°C
Dew Point: 70°F, 21°C
Humidity: 89%
Barometer: 29.95 inHg, 1014.2 hPa
Clouds: Clear
Visibility: 10 miles, 16 km
2024/06/19 08:53 KGKY 190853Z AUTO 09003KT 10SM CLR 23/21 A2995 RMK AO2 SLP133 T02330206 51003
KAFW - Ft Worth/Allianc, Texas, USA
Distance from station: W 41mi, 66km
Updated: Wed, 19-Jun-2024 3:53am CDT
Clear
Clear
 Wind from SE
Wind: SE 8 mph, 13 km/h
Temperature: 75°F, 24°C
Dew Point: 70°F, 21°C
Humidity: 83%
Barometer: 29.95 inHg, 1014.2 hPa
Clouds: Clear
Visibility: 10 miles, 16 km
2024/06/19 08:53 KAFW 190853Z 14007KT 10SM CLR 24/21 A2995 RMK AO2 SLP126 T02440206 51003
 
KJWY - Midlothian/Wax, Texas, USA
Distance from station: SSW 44mi, 71km
Updated: Wed, 19-Jun-2024 4:15am CDT
Clear
Clear
 Wind from varies
Wind: varies 3 mph, 6 km/h
Temperature: 72°F, 22°C
Dew Point: 70°F, 21°C
Humidity: 94%
Barometer: 29.97 inHg, 1014.9 hPa
Clouds: Clear
Visibility: 9 miles, 14 km
2024/06/19 09:15 KJWY 190915Z AUTO VRB03KT 9SM CLR 22/21 A2997 RMK AO2 T02200208 TSNO $
KFTW - Fort Worth, Texas, USA
Distance from station: WSW 46mi, 74km
Updated: Wed, 19-Jun-2024 3:53am CDT
Clear
Clear
 Wind from SE
Wind: SE 9 mph, 15 km/h
Temperature: 73°F, 23°C
Dew Point: 70°F, 21°C
Humidity: 89%
Barometer: 29.95 inHg, 1014.2 hPa
Clouds: Clear
Visibility: 10 miles, 16 km
2024/06/19 08:53 KFTW 190853Z 13008KT 10SM CLR 23/21 A2995 RMK AO2 SLP132 T02330206 51005 $
 
KGYI - Sherman/Denison, Texas, USA
Distance from station: N 47mi, 75km
Updated: Wed, 19-Jun-2024 4:15am CDT
Clear
Clear
 Wind from ESE
Wind: ESE 5 mph, 7 km/h
Temperature: 73°F, 23°C
Dew Point: 68°F, 20°C
Humidity: 83%
Barometer: 30.00 inHg, 1015.9 hPa
Clouds: Clear
Visibility: 10 miles, 16 km
2024/06/19 09:15 KGYI 190915Z AUTO 11004KT 10SM CLR 23/20 A3000 RMK AO2 T02250197 TSNO
KF00 - Bonham, Texas, USA
Distance from station: NNE 47mi, 76km
Updated: Wed, 19-Jun-2024 4:15am CDT
Clear
Clear
 Wind from ESE
Wind: ESE 7 mph, 11 km/h
Temperature: 72°F, 22°C
Dew Point: 72°F, 22°C
Humidity: 100%
Barometer: 29.99 inHg, 1015.6 hPa
Clouds: Clear
Visibility: 10 miles, 16 km
2024/06/19 09:15 KF00 190915Z AUTO 11006KT 10SM CLR 22/22 A2999 RMK AO2 T02210218